Sigfox identifier Datetime Temperature Humidity SNR
003C1F22 2018-10-09 08:16:35 20.7 39 17
003C1F22 2018-10-09 07:12:58 20.7 38 17.1
003C1F22 2018-10-09 01:54:40 20.7 38 17.2
003C1F22 2018-10-09 00:51:03 20.7 38 17.2
003C1F22 2018-10-08 23:47:23 20.7 38 17.2
003C1F22 2018-10-08 22:43:47 20.6 38 17.2
003C1F22 2018-10-08 21:40:11 20.6 38 17.2
003C1F22 2018-10-08 20:36:33 20.5 38 17.2
003C1F22 2018-10-08 19:32:52 20.5 38 17.2
003C1F22 2018-10-08 14:14:46 20.5 37 17.2
003C1F22 2018-10-08 08:56:35 20.7 38 17.3
003C1F22 2018-10-08 05:45:38 20.7 39 17.4
003C1F22 2018-10-08 03:38:27 20.7 39 17.4
003C1F22 2018-10-08 02:34:44 20.7 39 17.4
003C1F22 2018-10-08 01:31:07 20.7 39 17.4
003C1F22 2018-10-08 00:27:30 20.7 40 17.4
003C1F22 2018-10-07 22:20:05 20.8 40 17.4
003C1F22 2018-10-07 21:16:28 20.9 40 17.4
003C1F22 2018-10-07 20:12:45 20.9 40 17.4
003C1F22 2018-10-07 19:09:07 20.8 40 11.7
003C1F22 2018-10-07 18:05:29 20.9 40 11.4
003C1F22 2018-10-07 17:01:50 20.9 40 11.3
003C1F22 2018-10-07 15:58:03 20.9 40 11.4
003C1F22 2018-10-07 14:54:25 20.9 40 11.5
003C1F22 2018-10-07 12:47:10 20.9 41 11.3
003C1F22 2018-10-07 11:43:32 20.9 41 11.1
003C1F22 2018-10-07 10:39:56 20.9 41 11.1
003C1F22 2018-10-07 09:36:15 20.9 41 11.2
003C1F22 2018-10-07 07:28:51 21 41 11.1
003C1F22 2018-10-07 06:25:16 20.9 41 11
003C1F22 2018-10-07 05:21:36 20.9 41 10.7
003C1F22 2018-10-07 04:17:52 20.9 41 10.6
003C1F22 2018-10-07 03:14:15 21 41 10.3
003C1F22 2018-10-07 02:10:33 21.1 41 10.2
003C1F22 2018-10-07 01:06:52 21.1 41 10.2
003C1F22 2018-10-07 00:03:12 21.1 42 9.9
003C1F22 2018-10-06 22:59:30 21.2 42 9.6
003C1F22 2018-10-06 21:55:46 21.1 42 9.9
003C1F22 2018-10-06 20:52:05 21.1 42 10.5
003C1F22 2018-10-06 19:48:23 21.1 42 10.4
003C1F22 2018-10-06 18:44:36 21.1 42 10.4
003C1F22 2018-10-06 17:40:56 21.1 42 10.2
003C1F22 2018-10-06 16:37:14 21.1 42 10.1
003C1F22 2018-10-06 15:33:36 21.2 42 10.4
003C1F22 2018-10-06 14:29:57 21.1 42 10.5
003C1F22 2018-10-06 12:22:32 21.1 42 10.6
003C1F22 2018-10-06 11:18:55 21.1 42 10.6
003C1F22 2018-10-06 10:15:16 21.1 43 10.5
003C1F22 2018-10-06 09:11:25 21.1 43 10.4
003C1F22 2018-10-06 08:07:43 21.1 43 10.4
003C1F22 2018-10-06 07:04:04 21.1 43 10.5
003C1F22 2018-10-06 06:00:22 21.2 43 10.6
003C1F22 2018-10-06 04:56:43 21.3 43 10.4
003C1F22 2018-10-06 03:53:02 21.3 43 10.6
003C1F22 2018-10-06 02:49:22 21.3 44 10.5
003C1F22 2018-10-06 00:42:03 21.4 44 10.8
003C1F22 2018-10-05 23:38:28 21.3 44 11
003C1F22 2018-10-05 22:34:49 21.3 44 11.2
003C1F22 2018-10-05 21:31:07 21.3 44 11.5
003C1F22 2018-10-05 20:27:28 21.3 45 11.8
003C1F22 2018-10-05 19:23:46 21.4 45 11.9
003C1F22 2018-10-05 18:20:08 21.4 46 12
003C1F22 2018-10-05 17:16:27 21.4 47 11.9
003C1F22 2018-10-05 15:09:10 21.3 51 10.1
003C1F22 2018-10-05 14:05:32 21.4 50 10
003C1F22 2018-10-05 13:01:50 21.2 48 10.8
003C1F22 2018-10-05 11:58:06 21.2 47 11
003C1F22 2018-10-05 09:50:46 21.2 41 13.2
003C1F22 2018-10-05 08:47:05 21 47 0